sensor_id;sensor_type;location;lat;lon;timestamp;P1;durP1;ratioP1;P2;durP2;ratioP2
32319;SDS011;19080;51.750;5.888;2023-05-13T00:01:19;7.03;;;4.60;;
32319;SDS011;19080;51.750;5.888;2023-05-13T00:03:46;9.43;;;4.57;;
32319;SDS011;19080;51.750;5.888;2023-05-13T00:06:12;5.22;;;4.28;;
32319;SDS011;19080;51.750;5.888;2023-05-13T00:08:39;6.32;;;4.13;;
32319;SDS011;19080;51.750;5.888;2023-05-13T00:11:06;5.20;;;4.25;;
32319;SDS011;19080;51.750;5.888;2023-05-13T00:13:33;6.10;;;4.28;;
32319;SDS011;19080;51.750;5.888;2023-05-13T00:15:59;7.57;;;4.13;;
32319;SDS011;19080;51.750;5.888;2023-05-13T00:18:26;4.85;;;4.07;;
32319;SDS011;19080;51.750;5.888;2023-05-13T00:20:53;9.05;;;3.67;;
32319;SDS011;19080;51.750;5.888;2023-05-13T00:23:19;5.82;;;4.35;;
32319;SDS011;19080;51.750;5.888;2023-05-13T00:25:46;7.05;;;4.15;;
32319;SDS011;19080;51.750;5.888;2023-05-13T00:28:13;7.18;;;4.38;;
32319;SDS011;19080;51.750;5.888;2023-05-13T00:30:43;6.03;;;3.90;;
32319;SDS011;19080;51.750;5.888;2023-05-13T00:33:11;6.32;;;4.47;;
32319;SDS011;19080;51.750;5.888;2023-05-13T00:35:38;5.88;;;4.65;;
32319;SDS011;19080;51.750;5.888;2023-05-13T00:38:05;7.38;;;3.90;;
32319;SDS011;19080;51.750;5.888;2023-05-13T00:40:33;6.43;;;4.30;;
32319;SDS011;19080;51.750;5.888;2023-05-13T00:43:03;5.88;;;4.40;;
32319;SDS011;19080;51.750;5.888;2023-05-13T00:45:30;7.80;;;4.60;;
32319;SDS011;19080;51.750;5.888;2023-05-13T00:47:57;5.28;;;4.22;;
32319;SDS011;19080;51.750;5.888;2023-05-13T00:50:24;6.25;;;4.85;;
32319;SDS011;19080;51.750;5.888;2023-05-13T00:52:51;4.90;;;4.47;;
32319;SDS011;19080;51.750;5.888;2023-05-13T00:55:19;5.07;;;4.55;;
32319;SDS011;19080;51.750;5.888;2023-05-13T00:57:46;5.78;;;4.22;;
32319;SDS011;19080;51.750;5.888;2023-05-13T01:00:13;5.93;;;4.53;;
32319;SDS011;19080;51.750;5.888;2023-05-13T01:02:52;10.20;;;4.78;;
32319;SDS011;19080;51.750;5.888;2023-05-13T01:05:32;4.57;;;3.85;;
32319;SDS011;19080;51.750;5.888;2023-05-13T01:08:16;11.00;;;4.63;;
32319;SDS011;19080;51.750;5.888;2023-05-13T01:11:03;5.85;;;4.72;;
32319;SDS011;19080;51.750;5.888;2023-05-13T01:13:36;6.18;;;4.78;;
32319;SDS011;19080;51.750;5.888;2023-05-13T01:16:10;10.98;;;4.25;;
32319;SDS011;19080;51.750;5.888;2023-05-13T01:22:00;8.90;;;4.72;;
32319;SDS011;19080;51.750;5.888;2023-05-13T01:24:27;5.65;;;4.22;;
32319;SDS011;19080;51.750;5.888;2023-05-13T01:26:55;5.85;;;4.45;;
32319;SDS011;19080;51.750;5.888;2023-05-13T01:29:21;7.70;;;4.53;;
32319;SDS011;19080;51.750;5.888;2023-05-13T01:31:48;11.38;;;4.43;;
32319;SDS011;19080;51.750;5.888;2023-05-13T01:34:17;4.88;;;4.35;;
32319;SDS011;19080;51.750;5.888;2023-05-13T01:36:46;8.55;;;4.80;;
32319;SDS011;19080;51.750;5.888;2023-05-13T01:39:16;7.15;;;4.80;;
32319;SDS011;19080;51.750;5.888;2023-05-13T01:41:46;6.55;;;4.80;;
32319;SDS011;19080;51.750;5.888;2023-05-13T01:44:13;5.70;;;5.10;;
32319;SDS011;19080;51.750;5.888;2023-05-13T01:46:44;5.32;;;4.80;;
32319;SDS011;19080;51.750;5.888;2023-05-13T01:49:12;5.25;;;4.38;;
32319;SDS011;19080;51.750;5.888;2023-05-13T01:51:39;9.10;;;5.15;;
32319;SDS011;19080;51.750;5.888;2023-05-13T01:54:06;5.78;;;4.75;;
32319;SDS011;19080;51.750;5.888;2023-05-13T01:56:37;5.93;;;4.95;;
32319;SDS011;19080;51.750;5.888;2023-05-13T01:59:04;13.68;;;4.90;;
32319;SDS011;19080;51.750;5.888;2023-05-13T02:01:30;7.28;;;5.15;;
32319;SDS011;19080;51.750;5.888;2023-05-13T02:03:57;7.32;;;5.35;;
32319;SDS011;19080;51.750;5.888;2023-05-13T02:06:25;9.30;;;5.55;;
32319;SDS011;19080;51.750;5.888;2023-05-13T02:08:53;10.43;;;5.22;;
32319;SDS011;19080;51.750;5.888;2023-05-13T02:11:20;7.55;;;5.45;;
32319;SDS011;19080;51.750;5.888;2023-05-13T02:13:47;5.75;;;5.25;;
32319;SDS011;19080;51.750;5.888;2023-05-13T02:16:17;7.82;;;5.22;;
32319;SDS011;19080;51.750;5.888;2023-05-13T02:18:45;12.60;;;5.10;;
32319;SDS011;19080;51.750;5.888;2023-05-13T02:21:11;7.30;;;5.57;;
32319;SDS011;19080;51.750;5.888;2023-05-13T02:23:39;9.93;;;5.20;;
32319;SDS011;19080;51.750;5.888;2023-05-13T02:26:05;9.98;;;6.03;;
32319;SDS011;19080;51.750;5.888;2023-05-13T02:28:32;6.68;;;5.88;;
32319;SDS011;19080;51.750;5.888;2023-05-13T02:30:58;7.43;;;5.80;;
32319;SDS011;19080;51.750;5.888;2023-05-13T02:33:26;7.15;;;5.30;;
32319;SDS011;19080;51.750;5.888;2023-05-13T02:35:52;8.13;;;5.85;;
32319;SDS011;19080;51.750;5.888;2023-05-13T02:38:19;8.43;;;5.88;;
32319;SDS011;19080;51.750;5.888;2023-05-13T02:40:46;9.10;;;6.47;;
32319;SDS011;19080;51.750;5.888;2023-05-13T02:43:13;7.63;;;5.85;;
32319;SDS011;19080;51.750;5.888;2023-05-13T02:45:48;7.63;;;6.47;;
32319;SDS011;19080;51.750;5.888;2023-05-13T02:48:14;7.38;;;5.78;;
32319;SDS011;19080;51.750;5.888;2023-05-13T02:50:43;12.93;;;6.88;;
32319;SDS011;19080;51.750;5.888;2023-05-13T02:53:10;7.20;;;6.32;;
32319;SDS011;19080;51.750;5.888;2023-05-13T02:55:42;12.80;;;6.10;;
32319;SDS011;19080;51.750;5.888;2023-05-13T02:58:08;9.88;;;5.93;;
32319;SDS011;19080;51.750;5.888;2023-05-13T03:00:35;10.02;;;6.57;;
32319;SDS011;19080;51.750;5.888;2023-05-13T03:03:02;7.65;;;6.32;;
32319;SDS011;19080;51.750;5.888;2023-05-13T03:05:29;8.10;;;5.90;;
32319;SDS011;19080;51.750;5.888;2023-05-13T03:07:55;8.05;;;6.40;;
32319;SDS011;19080;51.750;5.888;2023-05-13T03:10:24;7.18;;;6.47;;
32319;SDS011;19080;51.750;5.888;2023-05-13T03:12:51;6.57;;;5.95;;
32319;SDS011;19080;51.750;5.888;2023-05-13T03:15:17;9.43;;;6.20;;
32319;SDS011;19080;51.750;5.888;2023-05-13T03:17:44;6.97;;;6.28;;
32319;SDS011;19080;51.750;5.888;2023-05-13T03:20:11;7.78;;;6.60;;
32319;SDS011;19080;51.750;5.888;2023-05-13T03:22:38;10.65;;;6.90;;
32319;SDS011;19080;51.750;5.888;2023-05-13T03:25:06;8.32;;;6.68;;
32319;SDS011;19080;51.750;5.888;2023-05-13T03:27:40;11.27;;;6.90;;
32319;SDS011;19080;51.750;5.888;2023-05-13T03:30:09;9.15;;;6.78;;
32319;SDS011;19080;51.750;5.888;2023-05-13T03:32:43;9.75;;;7.32;;
32319;SDS011;19080;51.750;5.888;2023-05-13T03:35:11;11.88;;;6.80;;
32319;SDS011;19080;51.750;5.888;2023-05-13T03:37:38;7.05;;;6.32;;
32319;SDS011;19080;51.750;5.888;2023-05-13T03:40:06;11.18;;;7.20;;
32319;SDS011;19080;51.750;5.888;2023-05-13T03:42:34;9.80;;;7.53;;
32319;SDS011;19080;51.750;5.888;2023-05-13T03:45:03;9.57;;;7.10;;
32319;SDS011;19080;51.750;5.888;2023-05-13T03:47:31;8.50;;;7.50;;
32319;SDS011;19080;51.750;5.888;2023-05-13T03:50:03;8.57;;;6.88;;
32319;SDS011;19080;51.750;5.888;2023-05-13T03:52:36;10.40;;;7.07;;
32319;SDS011;19080;51.750;5.888;2023-05-13T03:55:03;11.48;;;7.35;;
32319;SDS011;19080;51.750;5.888;2023-05-13T03:57:32;13.10;;;7.78;;
32319;SDS011;19080;51.750;5.888;2023-05-13T03:59:59;10.48;;;6.65;;
32319;SDS011;19080;51.750;5.888;2023-05-13T04:02:26;8.57;;;6.93;;
32319;SDS011;19080;51.750;5.888;2023-05-13T04:04:53;8.50;;;7.00;;
32319;SDS011;19080;51.750;5.888;2023-05-13T04:07:19;8.43;;;7.53;;
32319;SDS011;19080;51.750;5.888;2023-05-13T04:09:46;10.35;;;7.03;;
32319;SDS011;19080;51.750;5.888;2023-05-13T04:12:12;9.40;;;7.45;;
32319;SDS011;19080;51.750;5.888;2023-05-13T04:14:40;8.60;;;7.28;;
32319;SDS011;19080;51.750;5.888;2023-05-13T04:17:07;12.15;;;7.32;;
32319;SDS011;19080;51.750;5.888;2023-05-13T04:19:34;12.23;;;8.15;;
32319;SDS011;19080;51.750;5.888;2023-05-13T04:22:00;9.18;;;7.13;;
32319;SDS011;19080;51.750;5.888;2023-05-13T04:24:27;9.60;;;7.63;;
32319;SDS011;19080;51.750;5.888;2023-05-13T04:26:53;10.75;;;7.13;;
32319;SDS011;19080;51.750;5.888;2023-05-13T04:29:20;8.55;;;7.28;;
32319;SDS011;19080;51.750;5.888;2023-05-13T04:31:47;11.13;;;7.28;;
32319;SDS011;19080;51.750;5.888;2023-05-13T04:34:13;7.95;;;6.95;;
32319;SDS011;19080;51.750;5.888;2023-05-13T04:36:41;9.05;;;8.13;;
32319;SDS011;19080;51.750;5.888;2023-05-13T04:39:08;11.68;;;7.60;;
32319;SDS011;19080;51.750;5.888;2023-05-13T04:41:36;9.52;;;8.15;;
32319;SDS011;19080;51.750;5.888;2023-05-13T04:44:02;10.07;;;7.45;;
32319;SDS011;19080;51.750;5.888;2023-05-13T04:46:31;10.00;;;7.43;;
32319;SDS011;19080;51.750;5.888;2023-05-13T04:48:58;9.93;;;7.55;;
32319;SDS011;19080;51.750;5.888;2023-05-13T04:51:25;12.48;;;7.65;;
32319;SDS011;19080;51.750;5.888;2023-05-13T04:53:52;8.90;;;6.97;;
32319;SDS011;19080;51.750;5.888;2023-05-13T04:56:19;9.68;;;7.85;;
32319;SDS011;19080;51.750;5.888;2023-05-13T04:58:47;10.65;;;7.57;;
32319;SDS011;19080;51.750;5.888;2023-05-13T05:01:14;8.73;;;7.63;;
32319;SDS011;19080;51.750;5.888;2023-05-13T05:03:41;8.50;;;7.60;;
32319;SDS011;19080;51.750;5.888;2023-05-13T05:06:08;9.93;;;7.40;;
32319;SDS011;19080;51.750;5.888;2023-05-13T05:08:34;10.30;;;8.20;;
32319;SDS011;19080;51.750;5.888;2023-05-13T05:11:01;8.27;;;7.30;;
32319;SDS011;19080;51.750;5.888;2023-05-13T05:13:30;8.75;;;7.40;;
32319;SDS011;19080;51.750;5.888;2023-05-13T05:15:57;8.07;;;7.20;;
32319;SDS011;19080;51.750;5.888;2023-05-13T05:18:24;11.57;;;7.85;;
32319;SDS011;19080;51.750;5.888;2023-05-13T05:20:51;9.48;;;8.45;;
32319;SDS011;19080;51.750;5.888;2023-05-13T05:23:19;9.85;;;7.88;;
32319;SDS011;19080;51.750;5.888;2023-05-13T05:25:47;10.88;;;8.30;;
32319;SDS011;19080;51.750;5.888;2023-05-13T05:28:26;10.18;;;8.57;;
32319;SDS011;19080;51.750;5.888;2023-05-13T05:30:52;10.68;;;9.05;;
32319;SDS011;19080;51.750;5.888;2023-05-13T05:33:23;9.98;;;8.18;;
32319;SDS011;19080;51.750;5.888;2023-05-13T05:35:50;10.50;;;8.30;;
32319;SDS011;19080;51.750;5.888;2023-05-13T05:38:19;9.70;;;8.55;;
32319;SDS011;19080;51.750;5.888;2023-05-13T05:40:45;11.38;;;8.48;;
32319;SDS011;19080;51.750;5.888;2023-05-13T05:43:13;10.95;;;8.70;;
32319;SDS011;19080;51.750;5.888;2023-05-13T05:45:39;9.93;;;8.48;;
32319;SDS011;19080;51.750;5.888;2023-05-13T05:48:09;13.05;;;7.93;;
32319;SDS011;19080;51.750;5.888;2023-05-13T05:50:36;10.13;;;7.72;;
32319;SDS011;19080;51.750;5.888;2023-05-13T05:53:05;10.00;;;7.78;;
32319;SDS011;19080;51.750;5.888;2023-05-13T05:55:35;10.07;;;6.97;;
32319;SDS011;19080;51.750;5.888;2023-05-13T05:58:02;11.18;;;7.43;;
32319;SDS011;19080;51.750;5.888;2023-05-13T06:00:32;9.02;;;6.97;;
32319;SDS011;19080;51.750;5.888;2023-05-13T06:02:59;12.65;;;7.55;;
32319;SDS011;19080;51.750;5.888;2023-05-13T06:05:26;9.98;;;7.10;;
32319;SDS011;19080;51.750;5.888;2023-05-13T06:07:52;8.80;;;7.25;;
32319;SDS011;19080;51.750;5.888;2023-05-13T06:10:19;12.20;;;8.38;;
32319;SDS011;19080;51.750;5.888;2023-05-13T06:12:46;10.88;;;7.35;;
32319;SDS011;19080;51.750;5.888;2023-05-13T06:15:13;7.70;;;6.90;;
32319;SDS011;19080;51.750;5.888;2023-05-13T06:17:40;14.38;;;8.30;;
32319;SDS011;19080;51.750;5.888;2023-05-13T06:20:07;8.95;;;7.35;;
32319;SDS011;19080;51.750;5.888;2023-05-13T06:22:34;8.70;;;7.82;;
32319;SDS011;19080;51.750;5.888;2023-05-13T06:25:01;8.40;;;7.28;;
32319;SDS011;19080;51.750;5.888;2023-05-13T06:27:27;11.43;;;8.00;;
32319;SDS011;19080;51.750;5.888;2023-05-13T06:29:54;8.23;;;7.45;;
32319;SDS011;19080;51.750;5.888;2023-05-13T06:32:20;10.63;;;6.90;;
32319;SDS011;19080;51.750;5.888;2023-05-13T06:34:47;8.73;;;7.90;;
32319;SDS011;19080;51.750;5.888;2023-05-13T06:37:14;7.53;;;6.57;;
32319;SDS011;19080;51.750;5.888;2023-05-13T06:39:41;8.75;;;7.50;;
32319;SDS011;19080;51.750;5.888;2023-05-13T06:42:08;9.68;;;6.95;;
32319;SDS011;19080;51.750;5.888;2023-05-13T06:44:42;8.43;;;6.68;;
32319;SDS011;19080;51.750;5.888;2023-05-13T06:47:09;8.68;;;7.75;;
32319;SDS011;19080;51.750;5.888;2023-05-13T06:49:40;7.88;;;7.05;;
32319;SDS011;19080;51.750;5.888;2023-05-13T06:52:10;11.02;;;7.75;;
32319;SDS011;19080;51.750;5.888;2023-05-13T06:54:37;8.82;;;7.60;;
32319;SDS011;19080;51.750;5.888;2023-05-13T06:57:04;7.05;;;6.32;;
32319;SDS011;19080;51.750;5.888;2023-05-13T06:59:30;8.75;;;6.68;;
32319;SDS011;19080;51.750;5.888;2023-05-13T07:01:57;11.13;;;6.28;;
32319;SDS011;19080;51.750;5.888;2023-05-13T07:04:24;10.30;;;6.57;;
32319;SDS011;19080;51.750;5.888;2023-05-13T07:06:50;7.95;;;6.40;;
32319;SDS011;19080;51.750;5.888;2023-05-13T07:09:17;7.88;;;6.05;;
32319;SDS011;19080;51.750;5.888;2023-05-13T07:11:44;9.38;;;6.40;;
32319;SDS011;19080;51.750;5.888;2023-05-13T07:14:10;14.43;;;6.72;;
32319;SDS011;19080;51.750;5.888;2023-05-13T07:16:37;8.25;;;6.07;;
32319;SDS011;19080;51.750;5.888;2023-05-13T07:19:03;11.85;;;7.38;;
32319;SDS011;19080;51.750;5.888;2023-05-13T07:21:30;11.25;;;6.40;;
32319;SDS011;19080;51.750;5.888;2023-05-13T07:23:57;8.45;;;6.93;;
32319;SDS011;19080;51.750;5.888;2023-05-13T07:26:23;8.40;;;5.65;;
32319;SDS011;19080;51.750;5.888;2023-05-13T07:28:50;7.05;;;6.35;;
32319;SDS011;19080;51.750;5.888;2023-05-13T07:31:16;7.45;;;6.20;;
32319;SDS011;19080;51.750;5.888;2023-05-13T07:33:43;10.23;;;5.68;;
32319;SDS011;19080;51.750;5.888;2023-05-13T07:36:09;9.25;;;5.57;;
32319;SDS011;19080;51.750;5.888;2023-05-13T07:38:36;7.40;;;5.47;;
32319;SDS011;19080;51.750;5.888;2023-05-13T07:41:03;8.85;;;6.03;;
32319;SDS011;19080;51.750;5.888;2023-05-13T07:43:29;7.18;;;5.93;;
32319;SDS011;19080;51.750;5.888;2023-05-13T07:45:57;6.00;;;5.30;;
32319;SDS011;19080;51.750;5.888;2023-05-13T07:48:24;7.10;;;5.93;;
32319;SDS011;19080;51.750;5.888;2023-05-13T07:50:50;6.80;;;5.97;;
32319;SDS011;19080;51.750;5.888;2023-05-13T07:53:17;9.75;;;6.03;;
32319;SDS011;19080;51.750;5.888;2023-05-13T07:55:45;8.20;;;5.78;;
32319;SDS011;19080;51.750;5.888;2023-05-13T07:58:11;7.38;;;6.13;;
32319;SDS011;19080;51.750;5.888;2023-05-13T08:00:38;8.38;;;5.95;;
32319;SDS011;19080;51.750;5.888;2023-05-13T08:03:05;6.97;;;6.00;;
32319;SDS011;19080;51.750;5.888;2023-05-13T08:05:32;9.52;;;6.68;;
32319;SDS011;19080;51.750;5.888;2023-05-13T08:07:58;8.05;;;5.75;;
32319;SDS011;19080;51.750;5.888;2023-05-13T08:10:25;9.23;;;5.75;;
32319;SDS011;19080;51.750;5.888;2023-05-13T08:12:52;9.63;;;5.82;;
32319;SDS011;19080;51.750;5.888;2023-05-13T08:15:23;12.63;;;5.68;;
32319;SDS011;19080;51.750;5.888;2023-05-13T08:17:50;7.60;;;5.50;;
32319;SDS011;19080;51.750;5.888;2023-05-13T08:20:19;13.38;;;5.13;;
32319;SDS011;19080;51.750;5.888;2023-05-13T08:22:48;7.28;;;4.40;;
32319;SDS011;19080;51.750;5.888;2023-05-13T08:25:15;6.80;;;4.40;;
32319;SDS011;19080;51.750;5.888;2023-05-13T08:27:42;6.68;;;4.78;;
32319;SDS011;19080;51.750;5.888;2023-05-13T08:30:09;8.50;;;5.22;;
32319;SDS011;19080;51.750;5.888;2023-05-13T08:32:36;9.82;;;5.97;;
32319;SDS011;19080;51.750;5.888;2023-05-13T08:35:03;7.68;;;5.95;;
32319;SDS011;19080;51.750;5.888;2023-05-13T08:37:30;6.82;;;4.72;;
32319;SDS011;19080;51.750;5.888;2023-05-13T08:39:56;8.48;;;5.30;;
32319;SDS011;19080;51.750;5.888;2023-05-13T08:42:28;4.95;;;4.40;;
32319;SDS011;19080;51.750;5.888;2023-05-13T08:45:03;5.35;;;4.78;;
32319;SDS011;19080;51.750;5.888;2023-05-13T08:47:37;7.10;;;4.85;;
32319;SDS011;19080;51.750;5.888;2023-05-13T08:50:16;6.00;;;3.97;;
32319;SDS011;19080;51.750;5.888;2023-05-13T08:52:44;5.82;;;4.93;;
32319;SDS011;19080;51.750;5.888;2023-05-13T08:55:11;6.20;;;4.30;;
32319;SDS011;19080;51.750;5.888;2023-05-13T08:57:38;6.38;;;4.75;;
32319;SDS011;19080;51.750;5.888;2023-05-13T09:00:06;8.18;;;5.10;;
32319;SDS011;19080;51.750;5.888;2023-05-13T09:02:33;5.07;;;4.55;;
32319;SDS011;19080;51.750;5.888;2023-05-13T09:05:01;6.22;;;4.18;;
32319;SDS011;19080;51.750;5.888;2023-05-13T09:07:34;7.18;;;4.20;;
32319;SDS011;19080;51.750;5.888;2023-05-13T09:10:05;4.65;;;4.18;;
32319;SDS011;19080;51.750;5.888;2023-05-13T09:12:49;4.68;;;4.15;;
32319;SDS011;19080;51.750;5.888;2023-05-13T09:15:18;6.07;;;3.72;;
32319;SDS011;19080;51.750;5.888;2023-05-13T09:17:48;8.70;;;4.50;;
32319;SDS011;19080;51.750;5.888;2023-05-13T09:20:17;9.68;;;3.97;;
32319;SDS011;19080;51.750;5.888;2023-05-13T09:22:52;4.60;;;3.85;;
32319;SDS011;19080;51.750;5.888;2023-05-13T09:25:20;6.43;;;4.22;;
32319;SDS011;19080;51.750;5.888;2023-05-13T09:27:51;8.63;;;4.18;;
32319;SDS011;19080;51.750;5.888;2023-05-13T09:30:23;7.45;;;4.30;;
32319;SDS011;19080;51.750;5.888;2023-05-13T09:35:49;9.18;;;4.13;;
32319;SDS011;19080;51.750;5.888;2023-05-13T09:38:20;6.93;;;4.20;;
32319;SDS011;19080;51.750;5.888;2023-05-13T09:40:54;6.30;;;4.68;;
32319;SDS011;19080;51.750;5.888;2023-05-13T09:43:21;4.20;;;3.75;;
32319;SDS011;19080;51.750;5.888;2023-05-13T09:45:53;6.85;;;4.45;;
32319;SDS011;19080;51.750;5.888;2023-05-13T09:48:21;4.50;;;4.10;;
32319;SDS011;19080;51.750;5.888;2023-05-13T09:50:50;7.05;;;4.80;;
32319;SDS011;19080;51.750;5.888;2023-05-13T09:53:18;6.43;;;4.28;;
32319;SDS011;19080;51.750;5.888;2023-05-13T09:55:47;5.50;;;4.00;;
32319;SDS011;19080;51.750;5.888;2023-05-13T09:58:14;5.70;;;4.50;;
32319;SDS011;19080;51.750;5.888;2023-05-13T10:00:45;6.45;;;4.38;;
32319;SDS011;19080;51.750;5.888;2023-05-13T10:03:13;8.55;;;4.28;;
32319;SDS011;19080;51.750;5.888;2023-05-13T10:05:41;4.85;;;4.03;;
32319;SDS011;19080;51.750;5.888;2023-05-13T10:08:08;6.25;;;3.50;;
32319;SDS011;19080;51.750;5.888;2023-05-13T10:10:37;6.82;;;4.18;;
32319;SDS011;19080;51.750;5.888;2023-05-13T10:13:07;9.48;;;4.60;;
32319;SDS011;19080;51.750;5.888;2023-05-13T10:15:34;6.18;;;4.07;;
32319;SDS011;19080;51.750;5.888;2023-05-13T10:18:01;9.05;;;4.10;;
32319;SDS011;19080;51.750;5.888;2023-05-13T10:20:32;6.53;;;3.38;;
32319;SDS011;19080;51.750;5.888;2023-05-13T10:22:59;6.53;;;4.00;;
32319;SDS011;19080;51.750;5.888;2023-05-13T10:25:25;7.70;;;4.47;;
32319;SDS011;19080;51.750;5.888;2023-05-13T10:27:53;4.38;;;3.95;;
32319;SDS011;19080;51.750;5.888;2023-05-13T10:30:23;10.13;;;3.90;;
32319;SDS011;19080;51.750;5.888;2023-05-13T10:32:51;13.82;;;4.50;;
32319;SDS011;19080;51.750;5.888;2023-05-13T10:35:19;7.93;;;3.97;;
32319;SDS011;19080;51.750;5.888;2023-05-13T10:38:12;4.72;;;3.92;;
32319;SDS011;19080;51.750;5.888;2023-05-13T10:43:33;5.32;;;3.83;;
32319;SDS011;19080;51.750;5.888;2023-05-13T10:46:01;7.90;;;4.10;;
32319;SDS011;19080;51.750;5.888;2023-05-13T10:48:37;7.55;;;4.70;;
32319;SDS011;19080;51.750;5.888;2023-05-13T10:51:04;6.38;;;4.65;;
32319;SDS011;19080;51.750;5.888;2023-05-13T10:56:14;5.20;;;4.70;;
32319;SDS011;19080;51.750;5.888;2023-05-13T10:58:55;5.40;;;3.90;;
32319;SDS011;19080;51.750;5.888;2023-05-13T11:01:25;5.05;;;4.15;;
32319;SDS011;19080;51.750;5.888;2023-05-13T11:03:56;8.73;;;4.15;;
32319;SDS011;19080;51.750;5.888;2023-05-13T11:06:37;5.93;;;4.00;;
32319;SDS011;19080;51.750;5.888;2023-05-13T11:09:13;6.93;;;4.90;;
32319;SDS011;19080;51.750;5.888;2023-05-13T11:11:40;4.63;;;4.03;;
32319;SDS011;19080;51.750;5.888;2023-05-13T11:14:08;9.52;;;3.90;;
32319;SDS011;19080;51.750;5.888;2023-05-13T11:16:41;7.50;;;3.78;;
32319;SDS011;19080;51.750;5.888;2023-05-13T11:19:18;8.13;;;3.60;;
32319;SDS011;19080;51.750;5.888;2023-05-13T11:21:51;8.07;;;3.70;;
32319;SDS011;19080;51.750;5.888;2023-05-13T11:24:19;7.75;;;3.35;;
32319;SDS011;19080;51.750;5.888;2023-05-13T11:29:25;8.68;;;3.70;;
32319;SDS011;19080;51.750;5.888;2023-05-13T11:32:03;6.82;;;3.15;;
32319;SDS011;19080;51.750;5.888;2023-05-13T11:34:31;5.60;;;3.33;;
32319;SDS011;19080;51.750;5.888;2023-05-13T11:39:28;7.22;;;3.15;;
32319;SDS011;19080;51.750;5.888;2023-05-13T11:41:56;5.10;;;3.03;;
32319;SDS011;19080;51.750;5.888;2023-05-13T11:44:23;3.03;;;2.63;;
32319;SDS011;19080;51.750;5.888;2023-05-13T11:46:54;6.50;;;3.20;;
32319;SDS011;19080;51.750;5.888;2023-05-13T11:52:11;6.38;;;3.42;;
32319;SDS011;19080;51.750;5.888;2023-05-13T11:54:40;7.03;;;3.05;;
32319;SDS011;19080;51.750;5.888;2023-05-13T11:57:18;4.97;;;2.63;;
32319;SDS011;19080;51.750;5.888;2023-05-13T11:59:52;6.95;;;3.13;;
32319;SDS011;19080;51.750;5.888;2023-05-13T12:02:19;5.07;;;3.10;;
32319;SDS011;19080;51.750;5.888;2023-05-13T12:04:47;6.43;;;2.80;;
32319;SDS011;19080;51.750;5.888;2023-05-13T12:07:17;5.40;;;3.53;;
32319;SDS011;19080;51.750;5.888;2023-05-13T12:09:45;6.88;;;2.75;;
32319;SDS011;19080;51.750;5.888;2023-05-13T12:12:12;8.68;;;2.85;;
32319;SDS011;19080;51.750;5.888;2023-05-13T12:14:39;3.67;;;2.97;;
32319;SDS011;19080;51.750;5.888;2023-05-13T12:17:07;3.45;;;2.47;;
32319;SDS011;19080;51.750;5.888;2023-05-13T12:19:34;6.82;;;2.35;;
32319;SDS011;19080;51.750;5.888;2023-05-13T12:22:02;9.35;;;2.60;;
32319;SDS011;19080;51.750;5.888;2023-05-13T12:24:34;4.35;;;2.40;;
32319;SDS011;19080;51.750;5.888;2023-05-13T12:27:04;5.20;;;2.72;;
32319;SDS011;19080;51.750;5.888;2023-05-13T12:29:41;4.32;;;2.20;;
32319;SDS011;19080;51.750;5.888;2023-05-13T12:32:08;4.57;;;2.60;;
32319;SDS011;19080;51.750;5.888;2023-05-13T12:34:36;4.72;;;2.47;;
32319;SDS011;19080;51.750;5.888;2023-05-13T12:37:10;4.43;;;2.63;;
32319;SDS011;19080;51.750;5.888;2023-05-13T12:39:38;5.97;;;2.38;;
32319;SDS011;19080;51.750;5.888;2023-05-13T12:42:16;3.33;;;2.67;;
32319;SDS011;19080;51.750;5.888;2023-05-13T12:44:43;5.32;;;3.03;;
32319;SDS011;19080;51.750;5.888;2023-05-13T12:47:11;3.92;;;2.33;;
32319;SDS011;19080;51.750;5.888;2023-05-13T12:49:50;6.10;;;2.33;;
32319;SDS011;19080;51.750;5.888;2023-05-13T12:52:18;5.55;;;2.15;;
32319;SDS011;19080;51.750;5.888;2023-05-13T12:54:44;4.85;;;2.58;;
32319;SDS011;19080;51.750;5.888;2023-05-13T12:57:11;4.38;;;2.50;;
32319;SDS011;19080;51.750;5.888;2023-05-13T12:59:38;4.88;;;2.40;;
32319;SDS011;19080;51.750;5.888;2023-05-13T13:02:04;4.68;;;2.40;;
32319;SDS011;19080;51.750;5.888;2023-05-13T13:04:32;5.75;;;2.25;;
32319;SDS011;19080;51.750;5.888;2023-05-13T13:06:58;6.78;;;2.40;;
32319;SDS011;19080;51.750;5.888;2023-05-13T13:09:25;7.82;;;2.67;;
32319;SDS011;19080;51.750;5.888;2023-05-13T13:11:51;4.70;;;2.40;;
32319;SDS011;19080;51.750;5.888;2023-05-13T13:14:18;5.05;;;2.45;;
32319;SDS011;19080;51.750;5.888;2023-05-13T13:16:44;4.72;;;2.33;;
32319;SDS011;19080;51.750;5.888;2023-05-13T13:19:12;5.50;;;2.63;;
32319;SDS011;19080;51.750;5.888;2023-05-13T13:21:38;2.60;;;2.00;;
32319;SDS011;19080;51.750;5.888;2023-05-13T13:24:05;2.40;;;2.15;;
32319;SDS011;19080;51.750;5.888;2023-05-13T13:26:32;4.45;;;2.25;;
32319;SDS011;19080;51.750;5.888;2023-05-13T13:28:58;4.57;;;2.35;;
32319;SDS011;19080;51.750;5.888;2023-05-13T13:31:25;2.85;;;2.33;;
32319;SDS011;19080;51.750;5.888;2023-05-13T13:33:51;5.50;;;2.60;;
32319;SDS011;19080;51.750;5.888;2023-05-13T13:36:19;4.10;;;2.30;;
32319;SDS011;19080;51.750;5.888;2023-05-13T13:38:45;3.53;;;2.17;;
32319;SDS011;19080;51.750;5.888;2023-05-13T13:41:12;3.67;;;2.30;;
32319;SDS011;19080;51.750;5.888;2023-05-13T13:43:39;4.78;;;2.10;;
32319;SDS011;19080;51.750;5.888;2023-05-13T13:46:05;4.47;;;2.13;;
32319;SDS011;19080;51.750;5.888;2023-05-13T13:48:32;3.83;;;2.10;;
32319;SDS011;19080;51.750;5.888;2023-05-13T13:50:59;6.20;;;3.88;;
32319;SDS011;19080;51.750;5.888;2023-05-13T13:53:25;4.95;;;2.63;;
32319;SDS011;19080;51.750;5.888;2023-05-13T13:55:52;4.57;;;2.45;;
32319;SDS011;19080;51.750;5.888;2023-05-13T13:58:18;4.88;;;2.58;;
32319;SDS011;19080;51.750;5.888;2023-05-13T14:00:45;4.85;;;2.58;;
32319;SDS011;19080;51.750;5.888;2023-05-13T14:03:12;3.40;;;2.25;;
32319;SDS011;19080;51.750;5.888;2023-05-13T14:05:38;3.00;;;2.22;;
32319;SDS011;19080;51.750;5.888;2023-05-13T14:08:05;4.90;;;2.35;;
32319;SDS011;19080;51.750;5.888;2023-05-13T14:10:32;3.25;;;2.42;;
32319;SDS011;19080;51.750;5.888;2023-05-13T14:12:58;5.32;;;2.33;;
32319;SDS011;19080;51.750;5.888;2023-05-13T14:15:25;4.65;;;2.47;;
32319;SDS011;19080;51.750;5.888;2023-05-13T14:17:54;6.70;;;2.63;;
32319;SDS011;19080;51.750;5.888;2023-05-13T14:20:21;4.75;;;2.28;;
32319;SDS011;19080;51.750;5.888;2023-05-13T14:22:48;3.25;;;2.50;;
32319;SDS011;19080;51.750;5.888;2023-05-13T14:25:14;3.90;;;2.25;;
32319;SDS011;19080;51.750;5.888;2023-05-13T14:27:41;5.00;;;2.33;;
32319;SDS011;19080;51.750;5.888;2023-05-13T14:30:08;4.95;;;2.65;;
32319;SDS011;19080;51.750;5.888;2023-05-13T14:32:35;3.28;;;2.03;;
32319;SDS011;19080;51.750;5.888;2023-05-13T14:35:01;3.42;;;2.10;;
32319;SDS011;19080;51.750;5.888;2023-05-13T14:37:28;5.93;;;2.47;;
32319;SDS011;19080;51.750;5.888;2023-05-13T14:39:54;2.83;;;2.25;;
32319;SDS011;19080;51.750;5.888;2023-05-13T14:42:21;3.03;;;2.28;;
32319;SDS011;19080;51.750;5.888;2023-05-13T14:44:48;5.78;;;2.08;;
32319;SDS011;19080;51.750;5.888;2023-05-13T14:47:14;7.28;;;2.55;;
32319;SDS011;19080;51.750;5.888;2023-05-13T14:49:41;4.45;;;2.70;;
32319;SDS011;19080;51.750;5.888;2023-05-13T14:52:07;4.40;;;2.20;;
32319;SDS011;19080;51.750;5.888;2023-05-13T14:54:34;3.53;;;2.35;;
32319;SDS011;19080;51.750;5.888;2023-05-13T14:57:02;4.22;;;2.60;;
32319;SDS011;19080;51.750;5.888;2023-05-13T14:59:29;6.72;;;2.40;;
32319;SDS011;19080;51.750;5.888;2023-05-13T15:01:57;5.95;;;2.53;;
32319;SDS011;19080;51.750;5.888;2023-05-13T15:04:24;3.42;;;2.75;;
32319;SDS011;19080;51.750;5.888;2023-05-13T15:06:50;4.65;;;2.60;;
32319;SDS011;19080;51.750;5.888;2023-05-13T15:09:17;5.85;;;2.35;;
32319;SDS011;19080;51.750;5.888;2023-05-13T15:11:44;9.80;;;2.72;;